Time;durP1;ratioP1;P1;durP2;ratioP2;P2;SDS_P1;SDS_P2;PMS_P1;PMS_P2;Temp;Humidity;BMP_temperature;BMP_pressure;BME280_temperature;BME280_humidity;BME280_pressure;Samples;Min_cycle;Max_cycle;Signal;HPM_P1;HPM_P2
2023/09/07 00:00:27;;;;;;;5.53;5.13;;;;;;;18.90;100.00;96847.94;5115566;28;20233;-53
2023/09/07 00:02:54;;;;;;;5.60;5.20;;;;;;;18.89;100.00;96844.41;5114214;28;20284;-54
2023/09/07 00:05:22;;;;;;;6.25;5.75;;;;;;;18.81;100.00;96854.44;5113528;28;20252;-54
2023/09/07 00:07:48;;;;;;;6.25;5.70;;;;;;;18.81;100.00;96846.41;5113658;28;20669;-52
2023/09/07 00:10:17;;;;;;;6.07;5.47;;;;;;;18.76;100.00;96849.63;5113006;28;20828;-55
2023/09/07 00:12:44;;;;;;;6.07;5.50;;;;;;;18.72;100.00;96845.66;5113732;28;20280;-54
2023/09/07 00:15:12;;;;;;;6.13;5.57;;;;;;;18.69;100.00;96842.53;5113288;28;20636;-53
2023/09/07 00:17:38;;;;;;;6.00;5.50;;;;;;;18.67;100.00;96853.44;5113552;28;20640;-54
2023/09/07 00:20:11;;;;;;;5.75;5.28;;;;;;;18.65;100.00;96849.28;5113543;28;20213;-53
2023/09/07 00:22:39;;;;;;;6.80;5.53;;;;;;;18.60;100.00;96849.84;5113849;28;20480;-53
2023/09/07 00:25:06;;;;;;;6.03;5.43;;;;;;;18.57;100.00;96852.91;5113744;28;20298;-53
2023/09/07 00:27:33;;;;;;;5.78;5.35;;;;;;;18.56;100.00;96863.81;5113006;28;20680;-52
2023/09/07 00:30:00;;;;;;;5.95;5.35;;;;;;;18.53;100.00;96856.97;5113408;28;20208;-52
2023/09/07 00:32:27;;;;;;;7.07;5.75;;;;;;;18.49;100.00;96862.88;5113466;28;20289;-53
2023/09/07 00:34:55;;;;;;;7.60;5.63;;;;;;;18.50;100.00;96848.44;5112486;28;20706;-53
2023/09/07 00:37:22;;;;;;;5.85;5.35;;;;;;;18.46;100.00;96845.31;5113216;28;20198;-54
2023/09/07 00:39:49;;;;;;;7.80;5.80;;;;;;;18.47;100.00;96844.31;5112623;28;20209;-53
2023/09/07 00:42:17;;;;;;;6.15;5.55;;;;;;;18.47;100.00;96846.16;5113177;28;20216;-54
2023/09/07 00:44:43;;;;;;;7.68;5.47;;;;;;;18.41;100.00;96853.09;5114202;28;20193;-53
2023/09/07 00:47:13;;;;;;;10.02;5.50;;;;;;;18.34;100.00;96852.19;5113425;28;20213;-54
2023/09/07 00:49:40;;;;;;;5.85;5.35;;;;;;;18.30;100.00;96853.56;5111849;28;20209;-53
2023/09/07 00:52:07;;;;;;;6.35;5.72;;;;;;;18.32;100.00;96857.72;5113734;28;20197;-52
2023/09/07 00:54:35;;;;;;;6.45;5.70;;;;;;;18.28;100.00;96866.31;5112589;28;20196;-52
2023/09/07 00:57:06;;;;;;;6.57;6.07;;;;;;;18.24;100.00;96859.66;5113042;28;20261;-52
2023/09/07 00:59:33;;;;;;;7.32;5.35;;;;;;;18.23;100.00;96858.00;5113141;28;21504;-52
2023/09/07 01:01:59;;;;;;;7.68;5.80;;;;;;;18.22;100.00;96861.69;5113364;28;20201;-53
2023/09/07 01:04:26;;;;;;;5.72;5.22;;;;;;;18.22;100.00;96859.00;5113169;28;20212;-54
2023/09/07 01:06:59;;;;;;;6.18;5.35;;;;;;;18.18;100.00;96860.38;5111931;28;20221;-53
2023/09/07 01:09:27;;;;;;;6.60;5.30;;;;;;;18.21;100.00;96857.38;5095206;28;20246;-52
2023/09/07 01:11:54;;;;;;;7.55;5.07;;;;;;;18.16;100.00;96863.25;5112053;28;20201;-52
2023/09/07 01:14:22;;;;;;;5.90;5.18;;;;;;;18.15;100.00;96860.75;5113084;28;20220;-53
2023/09/07 01:16:49;;;;;;;6.03;5.63;;;;;;;18.19;100.00;96852.19;5113025;28;20212;-52
2023/09/07 01:19:16;;;;;;;5.88;5.38;;;;;;;18.08;100.00;96849.97;5112606;28;20201;-52
2023/09/07 01:21:46;;;;;;;7.30;5.55;;;;;;;18.12;100.00;96851.25;5111985;28;20212;-53
2023/09/07 01:24:15;;;;;;;9.52;5.03;;;;;;;18.10;100.00;96847.13;5113135;28;20201;-53
2023/09/07 01:26:42;;;;;;;6.25;5.65;;;;;;;18.05;100.00;96860.22;5112910;28;20227;-53
2023/09/07 01:29:10;;;;;;;6.80;5.70;;;;;;;18.01;100.00;96848.19;5095351;28;20564;-53
2023/09/07 01:31:37;;;;;;;6.07;5.50;;;;;;;18.00;100.00;96850.03;5112927;28;20205;-53
2023/09/07 01:34:04;;;;;;;6.05;5.40;;;;;;;17.98;100.00;96848.56;5113041;28;20246;-54
2023/09/07 01:36:31;;;;;;;5.72;5.13;;;;;;;17.96;100.00;96848.75;5113010;28;20248;-53
2023/09/07 01:38:59;;;;;;;6.22;5.35;;;;;;;17.88;100.00;96844.34;5113169;28;20197;-56
2023/09/07 01:41:25;;;;;;;6.30;5.47;;;;;;;17.83;100.00;96841.38;5112440;28;20264;-53
2023/09/07 01:43:53;;;;;;;5.97;5.40;;;;;;;17.85;100.00;96844.69;5112564;28;20201;-52
2023/09/07 01:46:20;;;;;;;5.60;5.05;;;;;;;17.85;100.00;96850.03;5112497;28;20197;-53
2023/09/07 01:48:47;;;;;;;6.75;5.28;;;;;;;17.84;100.00;96850.22;5112213;28;20236;-53
2023/09/07 01:51:14;;;;;;;5.95;5.35;;;;;;;17.82;100.00;96841.53;5112164;28;20230;-52
2023/09/07 01:53:40;;;;;;;7.30;5.30;;;;;;;17.78;100.00;96849.09;5112369;28;20193;-53
2023/09/07 01:56:08;;;;;;;6.03;5.53;;;;;;;17.78;100.00;96842.94;5112297;28;20212;-53
2023/09/07 01:58:36;;;;;;;6.15;5.65;;;;;;;17.76;100.00;96852.97;5111075;28;20190;-53
2023/09/07 02:01:03;;;;;;;6.25;5.65;;;;;;;17.73;100.00;96846.16;5110901;28;20208;-52
2023/09/07 02:03:29;;;;;;;6.10;5.10;;;;;;;17.70;100.00;96851.88;5113076;28;20201;-54
2023/09/07 02:05:56;;;;;;;5.47;4.97;;;;;;;17.70;100.00;96851.03;5111399;28;20222;-53
2023/09/07 02:08:23;;;;;;;5.75;4.85;;;;;;;17.66;100.00;96839.88;5111153;28;20224;-53
2023/09/07 02:10:50;;;;;;;5.43;4.93;;;;;;;17.66;100.00;96845.22;5111186;28;20216;-53
2023/09/07 02:13:17;;;;;;;5.05;4.75;;;;;;;17.64;100.00;96847.22;5111392;28;20209;-53
2023/09/07 02:15:44;;;;;;;6.05;5.50;;;;;;;17.65;100.00;96843.56;5112079;28;20200;-53
2023/09/07 02:18:11;;;;;;;7.20;5.10;;;;;;;17.63;100.00;96850.09;5111494;28;20216;-53
2023/09/07 02:20:37;;;;;;;6.00;5.40;;;;;;;17.62;100.00;96843.94;5111113;28;20201;-52
2023/09/07 02:23:04;;;;;;;6.05;5.50;;;;;;;17.61;100.00;96850.28;5093121;28;20630;-52
2023/09/07 02:25:31;;;;;;;5.63;5.20;;;;;;;17.57;100.00;96856.19;5111009;28;20286;-54
2023/09/07 02:27:57;;;;;;;5.68;5.22;;;;;;;17.56;100.00;96851.81;5130424;28;20233;-53
2023/09/07 02:30:27;;;;;;;6.10;5.50;;;;;;;17.50;100.00;96855.22;5132048;28;20625;-54
2023/09/07 02:32:54;;;;;;;5.50;5.05;;;;;;;17.51;100.00;96857.69;5131633;28;20205;-55
2023/09/07 02:35:21;;;;;;;6.07;5.57;;;;;;;17.50;100.00;96853.34;5130418;28;20555;-53
2023/09/07 02:37:47;;;;;;;6.43;5.50;;;;;;;17.46;100.00;96860.09;5111795;28;20220;-53
2023/09/07 02:40:15;;;;;;;5.75;5.25;;;;;;;17.40;100.00;96852.78;5111200;28;20657;-53
2023/09/07 02:42:42;;;;;;;8.75;5.68;;;;;;;17.42;100.00;96854.28;5111800;28;20313;-52
2023/09/07 02:45:11;;;;;;;6.72;5.47;;;;;;;17.37;100.00;96851.31;5111647;28;20193;-54
2023/09/07 02:47:42;;;;;;;5.60;5.10;;;;;;;17.42;100.00;96853.44;5096056;28;20229;-52
2023/09/07 02:50:09;;;;;;;10.27;5.47;;;;;;;17.38;100.00;96855.66;5093419;28;20201;-52
2023/09/07 02:52:36;;;;;;;5.82;4.90;;;;;;;17.48;100.00;96852.72;5113339;28;20235;-54
2023/09/07 02:55:04;;;;;;;5.40;5.00;;;;;;;17.42;100.00;96854.28;5111029;28;20208;-53
2023/09/07 02:57:30;;;;;;;5.47;4.97;;;;;;;17.40;100.00;96858.13;5110384;28;20609;-53
2023/09/07 02:59:57;;;;;;;5.28;4.78;;;;;;;17.39;100.00;96857.28;5110392;28;20562;-52
2023/09/07 03:02:23;;;;;;;5.32;4.82;;;;;;;17.40;100.00;96853.63;5110540;28;20209;-53
2023/09/07 03:04:58;;;;;;;5.45;4.95;;;;;;;17.42;100.00;96856.13;5110117;28;20288;-53
2023/09/07 03:07:25;;;;;;;5.60;5.03;;;;;;;17.40;100.00;96850.09;5110664;28;20232;-54
2023/09/07 03:09:53;;;;;;;6.55;5.05;;;;;;;17.38;100.00;96852.13;5110453;28;20900;-51
2023/09/07 03:12:19;;;;;;;5.45;4.90;;;;;;;17.37;100.00;96855.81;5112613;28;20208;-52
2023/09/07 03:14:46;;;;;;;6.57;5.63;;;;;;;17.35;100.00;96849.84;5115822;28;20197;-54
2023/09/07 03:17:13;;;;;;;5.15;4.75;;;;;;;17.32;100.00;96847.53;5114906;28;20200;-52
2023/09/07 03:19:40;;;;;;;5.68;5.18;;;;;;;17.27;100.00;96849.88;5115323;28;21298;-53
2023/09/07 03:22:08;;;;;;;5.65;5.15;;;;;;;17.25;100.00;96849.25;5115145;28;20205;-53
2023/09/07 03:24:35;;;;;;;5.50;5.00;;;;;;;17.26;100.00;96846.38;5114828;28;20205;-53
2023/09/07 03:27:01;;;;;;;6.40;5.40;;;;;;;17.21;100.00;96856.78;5115329;28;20197;-52
2023/09/07 03:29:28;;;;;;;5.07;4.68;;;;;;;17.21;100.00;96853.28;5114264;28;20240;-52
2023/09/07 03:31:54;;;;;;;6.13;5.45;;;;;;;17.14;100.00;96852.34;5114544;28;20205;-53
2023/09/07 03:34:22;;;;;;;5.07;4.68;;;;;;;17.12;100.00;96857.00;5114373;28;20201;-53
2023/09/07 03:36:49;;;;;;;6.07;5.47;;;;;;;17.12;100.00;96862.34;5114472;28;20287;-53
2023/09/07 03:39:18;;;;;;;5.82;5.13;;;;;;;17.08;100.00;96866.41;5114262;28;20208;-52
2023/09/07 03:41:45;;;;;;;7.38;5.38;;;;;;;17.14;100.00;96855.84;5114136;28;20205;-51
2023/09/07 03:44:12;;;;;;;4.90;4.50;;;;;;;17.12;100.00;96854.34;5115545;28;20201;-53
2023/09/07 03:46:40;;;;;;;5.47;5.00;;;;;;;17.04;100.00;96859.78;5117310;28;20201;-53
2023/09/07 03:49:07;;;;;;;5.57;4.80;;;;;;;16.99;100.00;96862.13;5117242;28;20262;-53
2023/09/07 03:51:33;;;;;;;8.10;5.43;;;;;;;16.97;100.00;96858.81;5114839;28;20201;-53
2023/09/07 03:54:00;;;;;;;5.20;4.80;;;;;;;16.92;100.00;96862.00;5114581;28;20856;-54
2023/09/07 03:56:28;;;;;;;7.40;4.90;;;;;;;16.90;100.00;96853.31;5096108;28;20216;-54
2023/09/07 03:58:56;;;;;;;5.90;5.45;;;;;;;16.89;100.00;96852.53;5114199;28;20197;-53
2023/09/07 04:01:23;;;;;;;5.10;4.70;;;;;;;16.85;100.00;96848.53;5114912;28;20280;-54
2023/09/07 04:03:50;;;;;;;5.07;4.68;;;;;;;16.83;100.00;96847.84;5114561;28;20237;-53
2023/09/07 04:06:16;;;;;;;5.47;4.88;;;;;;;16.78;100.00;96855.59;5114590;28;20243;-53
2023/09/07 04:08:43;;;;;;;5.78;5.07;;;;;;;16.78;100.00;96849.41;5115785;28;20609;-54
2023/09/07 04:11:10;;;;;;;5.82;5.32;;;;;;;16.73;100.00;96865.94;5120394;28;20209;-53
2023/09/07 04:13:38;;;;;;;5.32;4.93;;;;;;;16.72;100.00;96853.59;5123349;28;20213;-54
2023/09/07 04:16:05;;;;;;;5.13;4.65;;;;;;;16.71;100.00;96857.31;5126942;28;20231;-54
2023/09/07 04:18:32;;;;;;;5.65;5.15;;;;;;;16.68;100.00;96857.66;5116174;28;20205;-54
2023/09/07 04:21:05;;;;;;;6.40;5.80;;;;;;;16.68;100.00;96859.50;5114696;28;20216;-54
2023/09/07 04:23:32;;;;;;;5.60;5.10;;;;;;;16.64;100.00;96859.00;5115108;28;20202;-51
2023/09/07 04:26:09;;;;;;;5.80;5.10;;;;;;;16.63;100.00;96862.69;5113665;28;20204;-53
2023/09/07 04:28:37;;;;;;;6.67;6.00;;;;;;;16.65;100.00;96854.50;5113419;28;20228;-54
2023/09/07 04:31:06;;;;;;;6.03;5.53;;;;;;;16.67;100.00;96869.34;5112735;28;20659;-54
2023/09/07 04:33:34;;;;;;;7.65;5.57;;;;;;;16.69;100.00;96867.31;5112941;28;20207;-54
2023/09/07 04:36:08;;;;;;;6.25;5.13;;;;;;;16.66;100.00;96865.00;5112815;28;20620;-58
2023/09/07 04:38:34;;;;;;;5.65;5.07;;;;;;;16.66;100.00;96866.81;5114415;28;20197;-54
2023/09/07 04:41:07;;;;;;;5.63;5.07;;;;;;;16.66;100.00;96870.34;5113721;28;20279;-55
2023/09/07 04:43:33;;;;;;;6.18;5.65;;;;;;;16.69;100.00;96872.66;5113782;28;20201;-55
2023/09/07 04:45:59;;;;;;;6.18;5.28;;;;;;;16.70;100.00;96873.47;5113330;28;20280;-55
2023/09/07 04:48:28;;;;;;;6.88;5.30;;;;;;;16.69;100.00;96867.31;5115780;28;20232;-52
2023/09/07 04:50:58;;;;;;;7.15;6.05;;;;;;;16.66;100.00;96867.66;5116013;28;20216;-58
2023/09/07 04:53:33;;;;;;;5.80;5.30;;;;;;;16.62;100.00;96871.69;5113763;28;20204;-53
2023/09/07 04:56:00;;;;;;;6.63;5.28;;;;;;;16.64;100.00;96872.38;5112926;28;20196;-54
2023/09/07 04:58:26;;;;;;;5.67;5.13;;;;;;;16.69;100.00;96880.66;5113219;28;20238;-54
2023/09/07 05:00:53;;;;;;;7.90;5.75;;;;;;;16.64;100.00;96883.03;5112152;28;20638;-54
2023/09/07 05:03:20;;;;;;;5.35;4.93;;;;;;;16.64;100.00;96888.38;5113210;28;20205;-53
2023/09/07 05:05:52;;;;;;;6.07;5.38;;;;;;;16.66;100.00;96882.84;5094609;28;20235;-54
2023/09/07 05:08:20;;;;;;;7.40;5.68;;;;;;;16.64;100.00;96875.03;5113065;28;20239;-53
2023/09/07 05:10:46;;;;;;;6.97;5.32;;;;;;;16.63;100.00;96878.69;5112501;28;20216;-53
2023/09/07 05:13:14;;;;;;;7.65;5.65;;;;;;;16.67;100.00;96879.19;5113510;28;20205;-53
2023/09/07 05:15:48;;;;;;;6.78;5.10;;;;;;;16.67;100.00;96880.03;5113058;28;20224;-53
2023/09/07 05:18:14;;;;;;;6.13;4.82;;;;;;;16.68;100.00;96878.19;5113537;28;20289;-51
2023/09/07 05:20:41;;;;;;;6.03;5.43;;;;;;;16.67;100.00;96876.50;5113152;28;20193;-54
2023/09/07 05:23:09;;;;;;;9.05;5.75;;;;;;;16.67;100.00;96869.34;5114611;28;20201;-53
2023/09/07 05:25:44;;;;;;;5.97;5.35;;;;;;;16.69;100.00;96872.66;5113799;28;20220;-52
2023/09/07 05:28:10;;;;;;;6.20;5.47;;;;;;;16.69;100.00;96880.66;5116154;28;20271;-53
2023/09/07 05:30:37;;;;;;;7.68;5.95;;;;;;;16.77;100.00;96883.28;5118700;28;20205;-52
2023/09/07 05:33:04;;;;;;;8.63;5.70;;;;;;;16.82;100.00;96872.94;5118072;28;20224;-53
2023/09/07 05:35:32;;;;;;;8.45;5.90;;;;;;;16.83;100.00;96887.09;5111501;28;20197;-52
2023/09/07 05:37:58;;;;;;;7.80;5.95;;;;;;;16.87;100.00;96885.75;5111913;28;20211;-53
2023/09/07 05:40:26;;;;;;;6.10;5.55;;;;;;;16.90;100.00;96888.06;5112115;28;20212;-53
2023/09/07 05:42:53;;;;;;;6.13;5.32;;;;;;;16.95;100.00;96891.03;5111714;28;20204;-52
2023/09/07 05:45:22;;;;;;;5.75;5.25;;;;;;;17.00;100.00;96901.22;5112313;28;20201;-54
2023/09/07 05:47:48;;;;;;;6.55;5.90;;;;;;;17.04;100.00;96891.84;5116005;28;20205;-54
2023/09/07 05:50:15;;;;;;;5.72;5.22;;;;;;;17.11;100.00;96898.13;5118755;28;20212;-53
2023/09/07 05:52:43;;;;;;;6.13;5.53;;;;;;;17.16;100.00;96898.41;5119478;28;20197;-53
2023/09/07 05:55:10;;;;;;;6.63;5.55;;;;;;;17.22;100.00;96901.19;5115685;28;20197;-54
2023/09/07 05:57:38;;;;;;;6.63;5.93;;;;;;;17.32;100.00;96901.78;5112751;28;20787;-53
2023/09/07 06:00:05;;;;;;;6.35;5.35;;;;;;;17.40;100.00;96903.56;5112003;28;20209;-52
2023/09/07 06:02:32;;;;;;;6.13;5.53;;;;;;;17.53;100.00;96903.00;5112414;28;20581;-53
2023/09/07 06:04:58;;;;;;;7.40;5.47;;;;;;;17.77;100.00;96903.63;5111881;28;20554;-53
2023/09/07 06:07:27;;;;;;;7.43;6.18;;;;;;;18.19;100.00;96904.88;5112188;28;20231;-53
2023/09/07 06:09:53;;;;;;;6.30;5.80;;;;;;;18.57;100.00;96903.78;5111481;28;20216;-53
2023/09/07 06:12:20;;;;;;;6.65;6.00;;;;;;;18.99;100.00;96897.69;5114254;28;20207;-55
2023/09/07 06:14:48;;;;;;;5.85;5.28;;;;;;;19.46;100.00;96904.41;5114772;28;20300;-53
2023/09/07 06:17:15;;;;;;;9.00;5.13;;;;;;;19.94;100.00;96902.78;5114402;28;20227;-52
2023/09/07 06:19:42;;;;;;;7.75;5.50;;;;;;;20.41;100.00;96904.75;5112369;28;20216;-53
2023/09/07 06:22:09;;;;;;;6.68;5.57;;;;;;;20.87;100.00;96900.44;5111419;28;20247;-54
2023/09/07 06:24:35;;;;;;;7.22;5.25;;;;;;;21.50;95.68;96904.59;5111880;28;20232;-52
2023/09/07 06:27:02;;;;;;;6.68;4.82;;;;;;;21.84;93.46;96904.41;5111833;28;20197;-54
2023/09/07 06:29:28;;;;;;;5.15;4.75;;;;;;;22.71;87.00;96916.75;5113539;28;20217;-54
2023/09/07 06:31:56;;;;;;;8.90;5.45;;;;;;;23.39;83.71;96912.50;5114449;28;20193;-54
2023/09/07 06:34:22;;;;;;;6.00;5.40;;;;;;;23.61;80.30;96913.03;5113533;28;20610;-53
2023/09/07 06:36:49;;;;;;;6.70;4.78;;;;;;;23.92;78.21;96917.56;5111150;28;20197;-54
2023/09/07 06:39:16;;;;;;;5.20;4.70;;;;;;;23.98;78.29;96908.59;5111646;28;20205;-54
2023/09/07 06:41:43;;;;;;;6.53;4.70;;;;;;;24.32;77.77;96910.81;5112515;28;20239;-55
2023/09/07 06:44:10;;;;;;;5.82;5.28;;;;;;;24.38;74.00;96912.59;5111418;28;20212;-52
2023/09/07 06:46:36;;;;;;;5.07;4.57;;;;;;;24.11;76.89;96911.19;5110647;28;20219;-53
2023/09/07 06:49:04;;;;;;;5.30;4.80;;;;;;;24.13;79.58;96914.50;5110751;28;20217;-53
2023/09/07 06:51:31;;;;;;;5.50;4.93;;;;;;;24.12;77.29;96910.97;5111490;28;20208;-54
2023/09/07 06:53:58;;;;;;;6.35;4.72;;;;;;;24.41;76.00;96898.66;5112041;28;20221;-53
2023/09/07 06:56:26;;;;;;;5.55;5.00;;;;;;;24.47;76.18;96905.88;5112835;28;20212;-54
2023/09/07 06:58:54;;;;;;;6.07;5.18;;;;;;;24.62;73.14;96900.91;5111987;28;20266;-54
2023/09/07 07:01:21;;;;;;;6.13;5.53;;;;;;;23.92;74.48;96906.75;5113160;28;20208;-53
2023/09/07 07:03:47;;;;;;;7.18;5.03;;;;;;;24.25;76.25;96904.63;5112135;28;20206;-54
2023/09/07 07:06:15;;;;;;;6.05;5.10;;;;;;;24.25;75.77;96910.88;5112381;28;20207;-53
2023/09/07 07:08:42;;;;;;;5.55;5.05;;;;;;;24.17;77.42;96910.31;5111866;28;20217;-53
2023/09/07 07:11:09;;;;;;;6.47;5.07;;;;;;;24.23;77.21;96907.56;5112342;28;20197;-53
2023/09/07 07:13:36;;;;;;;6.28;4.93;;;;;;;24.16;74.84;96908.69;5112065;28;20200;-53
2023/09/07 07:16:03;;;;;;;6.53;4.97;;;;;;;23.75;76.55;96907.31;5111957;28;20258;-54
2023/09/07 07:18:30;;;;;;;5.97;5.10;;;;;;;23.45;80.94;96911.69;5111711;28;20197;-54
2023/09/07 07:20:56;;;;;;;5.60;5.10;;;;;;;23.38;80.50;96913.56;5110300;28;20201;-54
2023/09/07 07:23:24;;;;;;;13.35;5.88;;;;;;;23.06;80.57;96906.47;5110962;28;20201;-55
2023/09/07 07:25:52;;;;;;;5.93;5.10;;;;;;;22.88;83.09;96909.03;5111182;28;20204;-53
2023/09/07 07:28:18;;;;;;;6.40;5.80;;;;;;;22.72;84.44;96913.84;5092263;28;20289;-55
2023/09/07 07:30:45;;;;;;;5.85;5.22;;;;;;;22.74;82.11;96914.47;5111101;28;20526;-54
2023/09/07 07:33:12;;;;;;;6.78;5.68;;;;;;;22.56;82.18;96924.25;5110662;28;20201;-54
2023/09/07 07:35:39;;;;;;;8.52;5.68;;;;;;;22.74;83.54;96916.34;5110127;28;20221;-54
2023/09/07 07:38:06;;;;;;;5.90;5.40;;;;;;;22.91;85.09;96916.69;5110600;28;20200;-55
2023/09/07 07:40:34;;;;;;;6.50;5.28;;;;;;;23.15;80.56;96913.25;5111104;28;20201;-53
2023/09/07 07:43:00;;;;;;;5.97;5.50;;;;;;;23.03;84.31;96917.66;5111406;28;20208;-55
2023/09/07 07:45:27;;;;;;;8.68;6.35;;;;;;;23.18;81.36;96908.25;5111456;28;20307;-53
2023/09/07 07:47:55;;;;;;;7.00;6.07;;;;;;;23.18;84.44;96913.66;5110038;28;20212;-52
2023/09/07 07:50:22;;;;;;;9.48;5.80;;;;;;;23.28;82.70;96914.03;5109757;28;20660;-53
2023/09/07 07:52:48;;;;;;;6.25;5.75;;;;;;;23.29;83.67;96912.16;5109884;28;20197;-54
2023/09/07 07:55:15;;;;;;;11.13;6.35;;;;;;;23.17;82.25;96911.16;5109824;28;20197;-51
2023/09/07 07:57:42;;;;;;;6.28;5.68;;;;;;;23.18;83.22;96915.53;5112434;28;20197;-52
2023/09/07 08:00:11;;;;;;;7.78;5.40;;;;;;;23.08;84.18;96907.91;5121144;28;20357;-53
2023/09/07 08:02:37;;;;;;;7.65;5.40;;;;;;;22.99;85.75;96902.97;5114190;28;20201;-53
2023/09/07 08:05:04;;;;;;;7.97;6.00;;;;;;;22.96;85.19;96906.06;5126731;28;20209;-53
2023/09/07 08:07:32;;;;;;;7.22;6.00;;;;;;;22.81;89.20;96907.16;5118961;28;20209;-55
2023/09/07 08:09:58;;;;;;;6.60;5.97;;;;;;;22.80;89.90;96905.53;5116419;28;20236;-55
2023/09/07 08:12:25;;;;;;;6.45;5.85;;;;;;;22.80;86.66;96905.53;5114115;28;20612;-53
2023/09/07 08:14:53;;;;;;;8.07;6.15;;;;;;;22.88;85.77;96909.03;5114185;28;20206;-54
2023/09/07 08:17:20;;;;;;;5.72;5.22;;;;;;;22.89;86.34;96903.41;5114387;28;20193;-53
2023/09/07 08:19:48;;;;;;;7.40;5.90;;;;;;;22.98;88.34;96909.41;5113574;28;20254;-53
2023/09/07 08:22:16;;;;;;;6.43;5.82;;;;;;;23.15;89.12;96895.22;5115111;28;20209;-53
2023/09/07 08:24:44;;;;;;;6.60;6.00;;;;;;;23.37;88.57;96900.28;5114478;28;20236;-53
2023/09/07 08:27:11;;;;;;;6.93;6.30;;;;;;;23.51;86.55;96902.72;5114396;28;20197;-52
2023/09/07 08:29:37;;;;;;;6.05;5.55;;;;;;;23.71;85.43;96903.41;5113907;28;20278;-55
2023/09/07 08:32:06;;;;;;;9.88;6.50;;;;;;;23.78;82.23;96904.16;5113609;28;20633;-53
2023/09/07 08:34:35;;;;;;;6.55;5.95;;;;;;;24.13;85.70;96901.00;5113063;28;20194;-52
2023/09/07 08:37:05;;;;;;;9.73;7.15;;;;;;;24.30;83.18;96895.88;5113348;28;20295;-53
2023/09/07 08:39:34;;;;;;;6.55;5.93;;;;;;;24.60;83.20;96896.78;5113239;28;20624;-53
2023/09/07 08:42:00;;;;;;;8.20;6.45;;;;;;;24.62;80.46;96898.22;5113322;28;20201;-53
2023/09/07 08:44:28;;;;;;;7.75;6.70;;;;;;;24.98;81.10;96892.00;5113208;28;20216;-52
2023/09/07 08:46:56;;;;;;;7.28;6.65;;;;;;;25.16;81.95;96896.56;5113128;28;20209;-51
2023/09/07 08:49:24;;;;;;;8.50;6.60;;;;;;;25.27;77.97;96893.91;5113608;28;20212;-52
2023/09/07 08:51:51;;;;;;;8.02;6.57;;;;;;;25.30;80.88;96892.59;5112947;28;20205;-51
2023/09/07 08:54:18;;;;;;;8.40;6.60;;;;;;;25.31;77.57;96898.84;5112564;28;20204;-53
2023/09/07 08:56:45;;;;;;;10.20;7.60;;;;;;;25.39;76.48;96885.00;5115174;28;20204;-53
2023/09/07 08:59:12;;;;;;;11.93;9.77;;;;;;;25.81;78.52;96883.97;5114242;28;20216;-53
2023/09/07 09:01:38;;;;;;;7.28;6.63;;;;;;;26.03;75.31;96886.94;5114541;28;20251;-53
2023/09/07 09:04:06;;;;;;;7.72;6.68;;;;;;;26.15;74.86;96879.63;5115516;28;20201;-52
2023/09/07 09:06:35;;;;;;;7.30;6.03;;;;;;;26.28;74.75;96882.16;5114397;28;20531;-52
2023/09/07 09:09:02;;;;;;;7.47;6.82;;;;;;;26.44;74.40;96878.72;5112629;28;20658;-53
2023/09/07 09:11:28;;;;;;;7.80;7.10;;;;;;;26.46;75.31;96882.03;5113878;28;20203;-52
2023/09/07 09:13:55;;;;;;;6.78;5.45;;;;;;;26.77;76.71;96882.69;5113615;28;20216;-53
2023/09/07 09:16:22;;;;;;;8.05;6.70;;;;;;;26.96;73.55;96881.50;5113683;28;20208;-53
2023/09/07 09:18:49;;;;;;;7.05;6.45;;;;;;;27.01;73.82;96878.88;5113028;28;20211;-53
2023/09/07 09:21:16;;;;;;;9.98;6.97;;;;;;;27.02;72.94;96880.53;5112512;28;20266;-52
2023/09/07 09:23:44;;;;;;;7.47;6.68;;;;;;;27.04;74.13;96873.78;5112473;28;20637;-52
2023/09/07 09:26:12;;;;;;;12.75;6.70;;;;;;;27.34;71.38;96878.19;5112206;28;20205;-53
2023/09/07 09:28:38;;;;;;;10.63;8.00;;;;;;;27.44;71.36;96868.31;5111973;28;20548;-54
2023/09/07 09:31:06;;;;;;;8.38;6.68;;;;;;;27.80;72.64;96869.81;5112350;28;20235;-52
2023/09/07 09:33:33;;;;;;;9.50;6.85;;;;;;;27.48;70.77;96869.53;5113180;28;20197;-52
2023/09/07 09:36:02;;;;;;;7.35;6.53;;;;;;;27.36;71.23;96865.16;5112614;28;20208;-53
2023/09/07 09:38:29;;;;;;;7.97;6.28;;;;;;;27.56;71.67;96871.81;5112655;28;20287;-53
2023/09/07 09:40:57;;;;;;;7.22;6.53;;;;;;;27.78;69.44;96869.22;5112567;28;20239;-53
2023/09/07 09:43:24;;;;;;;7.15;6.10;;;;;;;27.84;73.32;96862.00;5113199;28;20210;-52
2023/09/07 09:45:52;;;;;;;7.78;6.60;;;;;;;27.93;71.11;96866.75;5112465;28;20208;-53
2023/09/07 09:48:21;;;;;;;7.53;6.63;;;;;;;27.92;70.18;96865.09;5112493;28;20201;-53
2023/09/07 09:50:48;;;;;;;6.90;6.30;;;;;;;27.85;70.21;96869.06;5111915;28;20244;-52
2023/09/07 09:53:18;;;;;;;7.85;6.78;;;;;;;27.80;70.54;96860.81;5112184;28;20653;-52
2023/09/07 09:55:46;;;;;;;6.85;6.15;;;;;;;28.24;71.79;96859.94;5112494;28;20297;-53
2023/09/07 09:58:14;;;;;;;7.93;6.53;;;;;;;28.35;70.69;96850.84;5112677;28;20589;-53
2023/09/07 10:00:41;;;;;;;6.53;5.88;;;;;;;28.63;73.52;96849.88;5112010;28;20197;-53
2023/09/07 10:03:11;;;;;;;8.23;7.05;;;;;;;28.53;67.87;96853.28;5112096;28;20398;-53
2023/09/07 10:05:37;;;;;;;8.10;7.03;;;;;;;28.43;67.62;96850.44;5111938;28;20197;-53
2023/09/07 10:08:05;;;;;;;8.02;6.90;;;;;;;28.33;69.19;96853.00;5112143;28;20216;-52
2023/09/07 10:10:36;;;;;;;11.77;6.93;;;;;;;28.62;67.84;96848.25;5111017;28;20233;-52
2023/09/07 10:13:04;;;;;;;7.97;6.30;;;;;;;28.42;69.16;96848.78;5111759;28;20287;-55
2023/09/07 10:15:35;;;;;;;7.78;6.25;;;;;;;28.59;69.25;96844.09;5112980;28;20284;-53
2023/09/07 10:18:11;;;;;;;7.72;6.90;;;;;;;28.39;69.07;96851.16;5113689;28;20203;-53
2023/09/07 10:20:55;;;;;;;10.68;7.03;;;;;;;28.32;70.24;96842.38;5111218;28;20193;-53
2023/09/07 10:23:23;;;;;;;6.53;5.93;;;;;;;28.65;70.88;96843.13;5111260;28;20206;-54
2023/09/07 10:25:51;;;;;;;7.38;6.50;;;;;;;28.74;70.43;96842.69;5110921;28;20208;-53
2023/09/07 10:28:24;;;;;;;7.03;6.40;;;;;;;28.87;69.65;96834.16;5110492;28;20229;-55
2023/09/07 10:31:04;;;;;;;7.13;6.43;;;;;;;29.15;69.09;96833.94;5113343;28;20217;-53
2023/09/07 10:33:31;;;;;;;7.00;6.03;;;;;;;29.39;68.73;96829.88;5112492;28;20189;-53
2023/09/07 10:35:58;;;;;;;6.72;6.13;;;;;;;29.24;68.50;96831.56;5112482;28;20629;-54
2023/09/07 10:38:24;;;;;;;6.82;6.28;;;;;;;29.44;71.68;96819.00;5115899;28;20209;-53
2023/09/07 10:40:57;;;;;;;8.20;5.80;;;;;;;29.67;69.93;96823.31;5114463;28;20277;-54
2023/09/07 10:43:23;;;;;;;6.72;6.13;;;;;;;29.63;65.96;96820.28;5112112;28;20198;-54
2023/09/07 10:45:50;;;;;;;7.63;6.93;;;;;;;29.24;65.52;96815.22;5111360;28;20201;-53
2023/09/07 10:48:18;;;;;;;7.18;6.50;;;;;;;29.53;67.53;96816.66;5111897;28;20577;-54
2023/09/07 10:50:47;;;;;;;6.93;6.28;;;;;;;29.43;67.51;96817.38;5111113;28;20239;-52
2023/09/07 10:53:15;;;;;;;8.13;6.15;;;;;;;29.58;67.20;96814.78;5111784;28;20289;-53
2023/09/07 10:55:43;;;;;;;7.30;5.97;;;;;;;29.80;69.31;96822.03;5110518;28;20205;-53
2023/09/07 10:58:10;;;;;;;7.00;6.40;;;;;;;30.05;69.07;96814.91;5111051;28;20711;-55
2023/09/07 11:00:37;;;;;;;6.85;6.15;;;;;;;30.06;67.51;96813.84;5111479;28;20227;-54
2023/09/07 11:03:08;;;;;;;7.18;6.57;;;;;;;29.96;67.78;96818.41;5111740;28;20572;-52
2023/09/07 11:05:37;;;;;;;7.25;6.03;;;;;;;30.09;67.86;96810.59;5110556;28;20262;-53
2023/09/07 11:08:05;;;;;;;7.03;6.43;;;;;;;30.05;66.09;96811.38;5111420;28;20193;-54
2023/09/07 11:10:33;;;;;;;6.75;6.15;;;;;;;29.90;66.05;96811.28;5110378;28;20232;-53
2023/09/07 11:13:02;;;;;;;6.88;6.25;;;;;;;30.07;66.71;96811.94;5111401;28;20208;-53
2023/09/07 11:15:30;;;;;;;6.80;5.97;;;;;;;30.10;64.90;96803.22;5111203;28;20236;-52
2023/09/07 11:17:56;;;;;;;6.93;6.18;;;;;;;30.21;67.20;96799.50;5111023;28;20238;-53
2023/09/07 11:20:24;;;;;;;6.35;5.70;;;;;;;30.14;64.76;96804.34;5110413;28;20201;-52
2023/09/07 11:22:52;;;;;;;6.82;6.13;;;;;;;30.24;66.74;96796.22;5111002;28;20193;-52
2023/09/07 11:25:18;;;;;;;6.88;6.13;;;;;;;30.24;66.91;96790.78;5110437;28;20212;-54
2023/09/07 11:27:45;;;;;;;8.52;6.13;;;;;;;30.40;69.11;96795.22;5110197;28;20240;-53
2023/09/07 11:30:12;;;;;;;6.45;5.88;;;;;;;30.56;68.80;96788.78;5110613;28;20223;-54